Saint Benedict, Louisiana
Current Conditions -  °F | °C
As of 12:35 PM on Wednesday 26 Nov 2014 (Local Time) from KHDC Reporting Station
Clear Clear  
Wind Chill: 64°   Ceiling: Unl
Heat Index: 64°   Visibility: 10mi
Dew Point: 32°   Wind: 5mph
Humidity: 30%   Direction: 220°SW
Pressure: 30.21"   Gusts: NA
Location:  30.53°N, 90.11°W
Report Text: KHDC 261835Z AUTO 22004KT 10SM CLR 18/00 A3021 RMK AO2
Loading
Personal Weather Stations






























Interactive Weather Map New forecast layout! Learn more

10-Day Weather Forecast

Advertisements
Track Severe Weather on mobile